sensor_id;sensor_type;location;lat;lon;timestamp;pressure;altitude;pressure_sealevel;temperature;humidity
46778;BME280;32536;47.128;8.746;2023-05-06T00:01:27;91773.72;;;16.84;53.73
46778;BME280;32536;47.128;8.746;2023-05-06T00:03:53;91777.00;;;16.79;53.40
46778;BME280;32536;47.128;8.746;2023-05-06T00:06:20;91777.44;;;16.77;53.51
46778;BME280;32536;47.128;8.746;2023-05-06T00:08:47;91773.97;;;16.77;53.65
46778;BME280;32536;47.128;8.746;2023-05-06T00:11:14;91782.97;;;16.74;53.82
46778;BME280;32536;47.128;8.746;2023-05-06T00:13:40;91775.44;;;16.69;53.49
46778;BME280;32536;47.128;8.746;2023-05-06T00:16:07;91785.91;;;16.67;53.80
46778;BME280;32536;47.128;8.746;2023-05-06T00:18:34;91787.72;;;16.70;53.69
46778;BME280;32536;47.128;8.746;2023-05-06T00:21:01;91783.09;;;16.70;53.59
46778;BME280;32536;47.128;8.746;2023-05-06T00:23:27;91781.91;;;16.71;53.71
46778;BME280;32536;47.128;8.746;2023-05-06T00:25:54;91777.69;;;16.70;54.08
46778;BME280;32536;47.128;8.746;2023-05-06T00:28:21;91776.03;;;16.73;54.04
46778;BME280;32536;47.128;8.746;2023-05-06T00:30:47;91780.88;;;16.78;53.97
46778;BME280;32536;47.128;8.746;2023-05-06T00:33:14;91790.06;;;16.80;54.17
46778;BME280;32536;47.128;8.746;2023-05-06T00:35:41;91781.97;;;16.80;54.22
46778;BME280;32536;47.128;8.746;2023-05-06T00:38:10;91790.31;;;16.73;54.89
46778;BME280;32536;47.128;8.746;2023-05-06T00:40:38;91781.09;;;16.61;54.52
46778;BME280;32536;47.128;8.746;2023-05-06T00:43:05;91774.72;;;16.55;54.86
46778;BME280;32536;47.128;8.746;2023-05-06T00:45:32;91764.16;;;16.48;54.42
46778;BME280;32536;47.128;8.746;2023-05-06T00:47:59;91764.56;;;16.46;54.44
46778;BME280;32536;47.128;8.746;2023-05-06T00:50:27;91746.19;;;16.41;55.26
46778;BME280;32536;47.128;8.746;2023-05-06T00:52:56;91748.41;;;16.33;55.86
46778;BME280;32536;47.128;8.746;2023-05-06T00:55:24;91751.66;;;16.28;55.44
46778;BME280;32536;47.128;8.746;2023-05-06T00:57:51;91747.00;;;16.29;55.32
46778;BME280;32536;47.128;8.746;2023-05-06T01:00:19;91747.44;;;16.27;55.06
46778;BME280;32536;47.128;8.746;2023-05-06T01:02:46;91746.50;;;16.21;55.63
46778;BME280;32536;47.128;8.746;2023-05-06T01:05:18;91748.13;;;16.19;55.49
46778;BME280;32536;47.128;8.746;2023-05-06T01:07:57;91758.50;;;16.20;56.12
46778;BME280;32536;47.128;8.746;2023-05-06T01:10:35;91765.31;;;16.25;55.91
46778;BME280;32536;47.128;8.746;2023-05-06T01:13:19;91763.22;;;16.29;55.95
46778;BME280;32536;47.128;8.746;2023-05-06T01:15:58;91768.50;;;16.32;54.91
46778;BME280;32536;47.128;8.746;2023-05-06T01:18:26;91765.38;;;16.34;54.71
46778;BME280;32536;47.128;8.746;2023-05-06T01:20:57;91751.44;;;16.36;54.99
46778;BME280;32536;47.128;8.746;2023-05-06T01:23:24;91761.47;;;16.35;54.98
46778;BME280;32536;47.128;8.746;2023-05-06T01:25:51;91753.03;;;16.33;55.26
46778;BME280;32536;47.128;8.746;2023-05-06T01:28:18;91743.25;;;16.26;55.46
46778;BME280;32536;47.128;8.746;2023-05-06T01:30:56;91756.88;;;16.23;55.19
46778;BME280;32536;47.128;8.746;2023-05-06T01:33:45;91761.09;;;16.24;56.36
46778;BME280;32536;47.128;8.746;2023-05-06T01:36:30;91757.50;;;16.27;56.21
46778;BME280;32536;47.128;8.746;2023-05-06T01:39:24;91749.59;;;16.32;55.88
46778;BME280;32536;47.128;8.746;2023-05-06T01:41:55;91754.44;;;16.38;55.53
46778;BME280;32536;47.128;8.746;2023-05-06T01:44:26;91752.69;;;16.44;55.23
46778;BME280;32536;47.128;8.746;2023-05-06T01:46:55;91750.63;;;16.48;55.51
46778;BME280;32536;47.128;8.746;2023-05-06T01:49:22;91743.88;;;16.53;55.50
46778;BME280;32536;47.128;8.746;2023-05-06T01:51:51;91751.75;;;16.60;55.25
46778;BME280;32536;47.128;8.746;2023-05-06T01:54:18;91740.06;;;16.63;55.45
46778;BME280;32536;47.128;8.746;2023-05-06T01:56:45;91746.53;;;16.65;55.38
46778;BME280;32536;47.128;8.746;2023-05-06T01:59:12;91749.88;;;16.70;55.60
46778;BME280;32536;47.128;8.746;2023-05-06T02:01:38;91747.16;;;16.70;55.89
46778;BME280;32536;47.128;8.746;2023-05-06T02:04:05;91748.56;;;16.74;55.48
46778;BME280;32536;47.128;8.746;2023-05-06T02:06:32;91741.09;;;16.78;55.38
46778;BME280;32536;47.128;8.746;2023-05-06T02:08:58;91749.06;;;16.82;55.04
46778;BME280;32536;47.128;8.746;2023-05-06T02:11:25;91747.44;;;16.85;55.05
46778;BME280;32536;47.128;8.746;2023-05-06T02:13:52;91751.19;;;16.87;55.05
46778;BME280;32536;47.128;8.746;2023-05-06T02:16:19;91748.06;;;16.89;55.03
46778;BME280;32536;47.128;8.746;2023-05-06T02:18:46;91749.91;;;16.92;54.97
46778;BME280;32536;47.128;8.746;2023-05-06T02:21:13;91749.13;;;16.91;55.13
46778;BME280;32536;47.128;8.746;2023-05-06T02:23:40;91747.94;;;16.92;54.68
46778;BME280;32536;47.128;8.746;2023-05-06T02:26:06;91743.28;;;16.93;54.77
46778;BME280;32536;47.128;8.746;2023-05-06T02:28:33;91745.25;;;16.92;54.57
46778;BME280;32536;47.128;8.746;2023-05-06T02:31:00;91748.78;;;16.89;54.65
46778;BME280;32536;47.128;8.746;2023-05-06T02:33:27;91743.09;;;16.87;54.82
46778;BME280;32536;47.128;8.746;2023-05-06T02:35:53;91736.63;;;16.85;54.61
46778;BME280;32536;47.128;8.746;2023-05-06T02:38:20;91728.31;;;16.79;54.98
46778;BME280;32536;47.128;8.746;2023-05-06T02:40:47;91732.31;;;16.74;54.81
46778;BME280;32536;47.128;8.746;2023-05-06T02:43:13;91723.59;;;16.70;54.80
46778;BME280;32536;47.128;8.746;2023-05-06T02:45:40;91722.53;;;16.68;54.68
46778;BME280;32536;47.128;8.746;2023-05-06T02:48:07;91726.53;;;16.63;54.80
46778;BME280;32536;47.128;8.746;2023-05-06T02:50:34;91722.31;;;16.62;54.79
46778;BME280;32536;47.128;8.746;2023-05-06T02:53:01;91718.44;;;16.63;54.77
46778;BME280;32536;47.128;8.746;2023-05-06T02:55:27;91717.97;;;16.64;54.71
46778;BME280;32536;47.128;8.746;2023-05-06T02:57:57;91723.41;;;16.64;55.36
46778;BME280;32536;47.128;8.746;2023-05-06T03:00:24;91723.28;;;16.68;54.59
46778;BME280;32536;47.128;8.746;2023-05-06T03:02:50;91723.28;;;16.68;55.16
46778;BME280;32536;47.128;8.746;2023-05-06T03:05:17;91712.91;;;16.67;55.11
46778;BME280;32536;47.128;8.746;2023-05-06T03:07:44;91717.25;;;16.64;55.01
46778;BME280;32536;47.128;8.746;2023-05-06T03:10:11;91716.91;;;16.62;55.35
46778;BME280;32536;47.128;8.746;2023-05-06T03:12:37;91718.88;;;16.61;55.61
46778;BME280;32536;47.128;8.746;2023-05-06T03:15:05;91718.75;;;16.65;55.43
46778;BME280;32536;47.128;8.746;2023-05-06T03:17:32;91719.38;;;16.69;55.37
46778;BME280;32536;47.128;8.746;2023-05-06T03:19:58;91710.06;;;16.70;55.19
46778;BME280;32536;47.128;8.746;2023-05-06T03:22:25;91705.28;;;16.74;54.95
46778;BME280;32536;47.128;8.746;2023-05-06T03:24:52;91699.88;;;16.74;55.11
46778;BME280;32536;47.128;8.746;2023-05-06T03:27:18;91711.56;;;16.71;55.26
46778;BME280;32536;47.128;8.746;2023-05-06T03:29:45;91715.59;;;16.67;55.09
46778;BME280;32536;47.128;8.746;2023-05-06T03:32:12;91715.72;;;16.63;54.85
46778;BME280;32536;47.128;8.746;2023-05-06T03:34:39;91711.50;;;16.62;54.84
46778;BME280;32536;47.128;8.746;2023-05-06T03:37:05;91703.72;;;16.64;55.01
46778;BME280;32536;47.128;8.746;2023-05-06T03:39:32;91702.81;;;16.67;54.80
46778;BME280;32536;47.128;8.746;2023-05-06T03:41:59;91700.88;;;16.68;54.76
46778;BME280;32536;47.128;8.746;2023-05-06T03:44:26;91706.28;;;16.68;54.95
46778;BME280;32536;47.128;8.746;2023-05-06T03:46:53;91706.28;;;16.68;55.06
46778;BME280;32536;47.128;8.746;2023-05-06T03:49:20;91704.66;;;16.70;54.85
46778;BME280;32536;47.128;8.746;2023-05-06T03:51:47;91701.19;;;16.70;55.22
46778;BME280;32536;47.128;8.746;2023-05-06T03:54:13;91703.88;;;16.70;54.99
46778;BME280;32536;47.128;8.746;2023-05-06T03:56:40;91717.53;;;16.66;55.12
46778;BME280;32536;47.128;8.746;2023-05-06T03:59:07;91716.47;;;16.63;55.34
46778;BME280;32536;47.128;8.746;2023-05-06T04:01:33;91713.75;;;16.63;54.94
46778;BME280;32536;47.128;8.746;2023-05-06T04:04:00;91715.28;;;16.64;54.80
46778;BME280;32536;47.128;8.746;2023-05-06T04:06:27;91711.38;;;16.65;54.72
46778;BME280;32536;47.128;8.746;2023-05-06T04:08:53;91702.94;;;16.63;54.89
46778;BME280;32536;47.128;8.746;2023-05-06T04:11:20;91710.31;;;16.63;54.80
46778;BME280;32536;47.128;8.746;2023-05-06T04:13:47;91716.47;;;16.63;55.20
46778;BME280;32536;47.128;8.746;2023-05-06T04:16:13;91707.50;;;16.67;55.31
46778;BME280;32536;47.128;8.746;2023-05-06T04:18:40;91730.31;;;16.65;55.55
46778;BME280;32536;47.128;8.746;2023-05-06T04:21:08;91754.03;;;16.61;55.32
46778;BME280;32536;47.128;8.746;2023-05-06T04:23:38;91771.94;;;16.46;55.31
46778;BME280;32536;47.128;8.746;2023-05-06T04:26:04;91784.41;;;16.30;55.52
46778;BME280;32536;47.128;8.746;2023-05-06T04:28:31;91769.19;;;16.24;55.48
46778;BME280;32536;47.128;8.746;2023-05-06T04:30:58;91754.28;;;16.19;55.01
46778;BME280;32536;47.128;8.746;2023-05-06T04:33:27;91734.75;;;16.15;55.17
46778;BME280;32536;47.128;8.746;2023-05-06T04:35:54;91732.81;;;16.03;55.29
46778;BME280;32536;47.128;8.746;2023-05-06T04:38:21;91717.59;;;15.83;55.84
46778;BME280;32536;47.128;8.746;2023-05-06T04:40:50;91708.44;;;15.67;55.95
46778;BME280;32536;47.128;8.746;2023-05-06T04:43:17;91719.91;;;15.59;56.04
46778;BME280;32536;47.128;8.746;2023-05-06T04:45:44;91713.09;;;15.54;56.40
46778;BME280;32536;47.128;8.746;2023-05-06T04:48:17;91717.22;;;15.59;56.25
46778;BME280;32536;47.128;8.746;2023-05-06T04:50:47;91719.34;;;15.64;56.40
46778;BME280;32536;47.128;8.746;2023-05-06T04:53:15;91721.06;;;15.71;56.27
46778;BME280;32536;47.128;8.746;2023-05-06T04:55:42;91725.50;;;15.77;56.14
46778;BME280;32536;47.128;8.746;2023-05-06T04:58:08;91735.78;;;15.82;56.32
46778;BME280;32536;47.128;8.746;2023-05-06T05:00:35;91730.25;;;15.86;56.24
46778;BME280;32536;47.128;8.746;2023-05-06T05:03:02;91732.84;;;15.90;55.93
46778;BME280;32536;47.128;8.746;2023-05-06T05:05:30;91737.63;;;15.86;55.99
46778;BME280;32536;47.128;8.746;2023-05-06T05:07:58;91743.09;;;15.82;56.20
46778;BME280;32536;47.128;8.746;2023-05-06T05:10:25;91743.50;;;15.80;56.42
46778;BME280;32536;47.128;8.746;2023-05-06T05:12:52;91743.50;;;15.80;56.32
46778;BME280;32536;47.128;8.746;2023-05-06T05:15:18;91745.03;;;15.81;56.65
46778;BME280;32536;47.128;8.746;2023-05-06T05:17:46;91749.28;;;15.82;56.60
46778;BME280;32536;47.128;8.746;2023-05-06T05:20:14;91744.28;;;15.81;56.28
46778;BME280;32536;47.128;8.746;2023-05-06T05:22:41;91746.22;;;15.80;56.61
46778;BME280;32536;47.128;8.746;2023-05-06T05:25:07;91748.84;;;15.84;56.85
46778;BME280;32536;47.128;8.746;2023-05-06T05:27:34;91744.41;;;15.90;56.69
46778;BME280;32536;47.128;8.746;2023-05-06T05:30:01;91746.13;;;15.97;56.36
46778;BME280;32536;47.128;8.746;2023-05-06T05:32:28;91739.31;;;16.05;56.27
46778;BME280;32536;47.128;8.746;2023-05-06T05:34:55;91741.75;;;16.12;56.24
46778;BME280;32536;47.128;8.746;2023-05-06T05:37:21;91736.56;;;16.18;56.54
46778;BME280;32536;47.128;8.746;2023-05-06T05:39:48;91738.81;;;16.20;56.28
46778;BME280;32536;47.128;8.746;2023-05-06T05:42:15;91741.84;;;16.22;55.94
46778;BME280;32536;47.128;8.746;2023-05-06T05:44:42;91737.06;;;16.26;55.95
46778;BME280;32536;47.128;8.746;2023-05-06T05:47:08;91740.09;;;16.28;56.17
46778;BME280;32536;47.128;8.746;2023-05-06T05:49:35;91735.13;;;16.26;56.08
46778;BME280;32536;47.128;8.746;2023-05-06T05:52:02;91737.06;;;16.26;56.20
46778;BME280;32536;47.128;8.746;2023-05-06T05:54:29;91740.84;;;16.28;55.96
46778;BME280;32536;47.128;8.746;2023-05-06T05:56:55;91748.41;;;16.33;55.91
46778;BME280;32536;47.128;8.746;2023-05-06T05:59:22;91749.81;;;16.38;56.26
46778;BME280;32536;47.128;8.746;2023-05-06T06:01:49;91755.09;;;16.42;56.10
46778;BME280;32536;47.128;8.746;2023-05-06T06:04:16;91757.34;;;16.43;56.40
46778;BME280;32536;47.128;8.746;2023-05-06T06:06:43;91755.72;;;16.46;56.39
46778;BME280;32536;47.128;8.746;2023-05-06T06:09:09;91750.94;;;16.50;56.01
46778;BME280;32536;47.128;8.746;2023-05-06T06:11:36;91751.56;;;16.54;56.51
46778;BME280;32536;47.128;8.746;2023-05-06T06:14:03;91749.16;;;16.56;56.54
46778;BME280;32536;47.128;8.746;2023-05-06T06:16:30;91741.72;;;16.60;56.48
46778;BME280;32536;47.128;8.746;2023-05-06T06:18:57;91736.63;;;16.62;56.80
46778;BME280;32536;47.128;8.746;2023-05-06T06:21:23;91733.13;;;16.62;56.44
46778;BME280;32536;47.128;8.746;2023-05-06T06:23:50;91738.09;;;16.63;56.50
46778;BME280;32536;47.128;8.746;2023-05-06T06:26:17;91750.75;;;16.67;56.60
46778;BME280;32536;47.128;8.746;2023-05-06T06:28:43;91747.16;;;16.70;56.26
46778;BME280;32536;47.128;8.746;2023-05-06T06:31:10;91746.28;;;16.73;56.48
46778;BME280;32536;47.128;8.746;2023-05-06T06:33:37;91740.75;;;16.76;56.48
46778;BME280;32536;47.128;8.746;2023-05-06T06:36:04;91742.88;;;16.81;56.23
46778;BME280;32536;47.128;8.746;2023-05-06T06:38:31;91742.75;;;16.85;56.36
46778;BME280;32536;47.128;8.746;2023-05-06T06:40:57;91738.88;;;16.86;56.35
46778;BME280;32536;47.128;8.746;2023-05-06T06:43:25;91741.91;;;16.88;56.37
46778;BME280;32536;47.128;8.746;2023-05-06T06:45:51;91735.59;;;16.91;56.41
46778;BME280;32536;47.128;8.746;2023-05-06T06:48:18;91739.38;;;16.94;56.39
46778;BME280;32536;47.128;8.746;2023-05-06T06:50:45;91733.84;;;16.98;56.37
46778;BME280;32536;47.128;8.746;2023-05-06T06:53:12;91739.91;;;17.02;56.48
46778;BME280;32536;47.128;8.746;2023-05-06T06:55:42;91740.19;;;17.04;56.79
46778;BME280;32536;47.128;8.746;2023-05-06T06:58:11;91735.41;;;17.08;56.42
46778;BME280;32536;47.128;8.746;2023-05-06T07:00:38;91741.44;;;17.12;56.44
46778;BME280;32536;47.128;8.746;2023-05-06T07:03:04;91738.59;;;17.16;56.29
46778;BME280;32536;47.128;8.746;2023-05-06T07:05:31;91741.63;;;17.18;56.46
46778;BME280;32536;47.128;8.746;2023-05-06T07:07:58;91738.59;;;17.16;56.43
46778;BME280;32536;47.128;8.746;2023-05-06T07:10:25;91736.97;;;17.18;56.23
46778;BME280;32536;47.128;8.746;2023-05-06T07:12:51;91738.16;;;17.17;56.45
46778;BME280;32536;47.128;8.746;2023-05-06T07:15:18;91737.41;;;17.17;56.43
46778;BME280;32536;47.128;8.746;2023-05-06T07:17:45;91736.97;;;17.18;56.73
46778;BME280;32536;47.128;8.746;2023-05-06T07:20:12;91739.53;;;17.22;56.57
46778;BME280;32536;47.128;8.746;2023-05-06T07:22:38;91736.09;;;17.21;56.59
46778;BME280;32536;47.128;8.746;2023-05-06T07:25:06;91744.63;;;17.20;56.50
46778;BME280;32536;47.128;8.746;2023-05-06T07:27:33;91744.81;;;17.25;56.64
46778;BME280;32536;47.128;8.746;2023-05-06T07:29:59;91749.66;;;17.31;56.43
46778;BME280;32536;47.128;8.746;2023-05-06T07:32:26;91740.66;;;17.34;56.32
46778;BME280;32536;47.128;8.746;2023-05-06T07:34:53;91743.22;;;17.37;56.30
46778;BME280;32536;47.128;8.746;2023-05-06T07:37:20;91740.25;;;17.44;56.42
46778;BME280;32536;47.128;8.746;2023-05-06T07:39:46;91740.72;;;17.52;56.33
46778;BME280;32536;47.128;8.746;2023-05-06T07:42:13;91740.47;;;17.59;56.45
46778;BME280;32536;47.128;8.746;2023-05-06T07:44:40;91743.22;;;17.69;56.41
46778;BME280;32536;47.128;8.746;2023-05-06T07:47:06;91751.66;;;17.80;56.53
46778;BME280;32536;47.128;8.746;2023-05-06T07:49:33;91746.56;;;17.91;56.41
46778;BME280;32536;47.128;8.746;2023-05-06T07:52:00;91748.88;;;18.02;56.14
46778;BME280;32536;47.128;8.746;2023-05-06T07:54:28;91748.13;;;18.11;56.19
46778;BME280;32536;47.128;8.746;2023-05-06T07:56:56;91752.22;;;18.16;55.93
46778;BME280;32536;47.128;8.746;2023-05-06T07:59:22;91746.34;;;18.17;55.80
46778;BME280;32536;47.128;8.746;2023-05-06T08:01:49;91746.47;;;18.14;56.10
46778;BME280;32536;47.128;8.746;2023-05-06T08:04:16;91746.19;;;18.12;56.13
46778;BME280;32536;47.128;8.746;2023-05-06T08:06:42;91747.72;;;18.13;56.37
46778;BME280;32536;47.128;8.746;2023-05-06T08:09:09;91747.13;;;18.18;56.03
46778;BME280;32536;47.128;8.746;2023-05-06T08:11:36;91751.47;;;18.24;56.22
46778;BME280;32536;47.128;8.746;2023-05-06T08:14:03;91744.56;;;18.33;56.15
46778;BME280;32536;47.128;8.746;2023-05-06T08:16:30;91747.28;;;18.42;56.24
46778;BME280;32536;47.128;8.746;2023-05-06T08:18:57;91745.75;;;18.50;56.04
46778;BME280;32536;47.128;8.746;2023-05-06T08:21:23;91747.13;;;18.55;56.21
46778;BME280;32536;47.128;8.746;2023-05-06T08:23:50;91744.13;;;18.62;56.09
46778;BME280;32536;47.128;8.746;2023-05-06T08:26:17;91743.22;;;18.65;56.15
46778;BME280;32536;47.128;8.746;2023-05-06T08:28:44;91751.22;;;18.69;56.05
46778;BME280;32536;47.128;8.746;2023-05-06T08:31:10;91743.50;;;18.77;56.04
46778;BME280;32536;47.128;8.746;2023-05-06T08:33:37;91749.09;;;18.82;56.01
46778;BME280;32536;47.128;8.746;2023-05-06T08:36:04;91749.69;;;18.86;56.02
46778;BME280;32536;47.128;8.746;2023-05-06T08:38:31;91754.53;;;18.92;55.98
46778;BME280;32536;47.128;8.746;2023-05-06T08:40:59;91759.94;;;19.01;55.92
46778;BME280;32536;47.128;8.746;2023-05-06T08:43:30;91752.53;;;19.11;55.66
46778;BME280;32536;47.128;8.746;2023-05-06T08:46:05;91755.06;;;19.24;56.24
46778;BME280;32536;47.128;8.746;2023-05-06T08:48:32;91757.44;;;19.40;56.01
46778;BME280;32536;47.128;8.746;2023-05-06T08:51:00;91761.03;;;19.56;55.55
46778;BME280;32536;47.128;8.746;2023-05-06T08:53:29;91757.97;;;19.63;55.21
46778;BME280;32536;47.128;8.746;2023-05-06T08:56:01;91760.97;;;19.65;54.93
46778;BME280;32536;47.128;8.746;2023-05-06T08:58:32;91750.88;;;19.65;54.62
46778;BME280;32536;47.128;8.746;2023-05-06T09:01:00;91756.75;;;19.64;54.96
46778;BME280;32536;47.128;8.746;2023-05-06T09:03:28;91758.31;;;19.56;55.04
46778;BME280;32536;47.128;8.746;2023-05-06T09:05:56;91760.59;;;19.48;54.87
46778;BME280;32536;47.128;8.746;2023-05-06T09:08:23;91756.25;;;19.41;54.95
46778;BME280;32536;47.128;8.746;2023-05-06T09:10:49;91762.41;;;19.42;54.82
46778;BME280;32536;47.128;8.746;2023-05-06T09:13:17;91747.78;;;19.39;54.84
46778;BME280;32536;47.128;8.746;2023-05-06T09:15:46;91749.00;;;19.38;54.82
46778;BME280;32536;47.128;8.746;2023-05-06T09:18:14;91740.72;;;19.32;54.82
46778;BME280;32536;47.128;8.746;2023-05-06T09:20:50;91746.75;;;19.27;54.81
46778;BME280;32536;47.128;8.746;2023-05-06T09:23:17;91749.94;;;19.26;54.85
46778;BME280;32536;47.128;8.746;2023-05-06T09:25:46;91755.53;;;19.22;54.89
46778;BME280;32536;47.128;8.746;2023-05-06T09:28:14;91750.56;;;19.20;54.68
46778;BME280;32536;47.128;8.746;2023-05-06T09:30:42;91748.00;;;19.17;54.82
46778;BME280;32536;47.128;8.746;2023-05-06T09:33:11;91744.09;;;19.18;54.75
46778;BME280;32536;47.128;8.746;2023-05-06T09:35:39;91744.09;;;19.18;54.77
46778;BME280;32536;47.128;8.746;2023-05-06T09:38:08;91740.44;;;19.21;54.80
46778;BME280;32536;47.128;8.746;2023-05-06T09:40:36;91734.84;;;19.25;54.93
46778;BME280;32536;47.128;8.746;2023-05-06T09:43:05;91739.53;;;19.24;54.72
46778;BME280;32536;47.128;8.746;2023-05-06T09:45:34;91740.28;;;19.25;54.80
46778;BME280;32536;47.128;8.746;2023-05-06T09:48:01;91729.69;;;19.36;54.75
46778;BME280;32536;47.128;8.746;2023-05-06T09:50:28;91724.53;;;19.47;54.46
46778;BME280;32536;47.128;8.746;2023-05-06T09:52:54;91718.00;;;19.54;54.33
46778;BME280;32536;47.128;8.746;2023-05-06T09:55:22;91725.25;;;19.57;54.27
46778;BME280;32536;47.128;8.746;2023-05-06T09:57:51;91723.88;;;19.62;54.50
46778;BME280;32536;47.128;8.746;2023-05-06T10:00:20;91716.75;;;19.64;54.15
46778;BME280;32536;47.128;8.746;2023-05-06T10:02:53;91716.59;;;19.68;53.95
46778;BME280;32536;47.128;8.746;2023-05-06T10:05:20;91708.09;;;19.75;53.84
46778;BME280;32536;47.128;8.746;2023-05-06T10:07:48;91712.91;;;19.80;54.03
46778;BME280;32536;47.128;8.746;2023-05-06T10:10:17;91706.59;;;19.83;54.02
46778;BME280;32536;47.128;8.746;2023-05-06T10:12:44;91710.91;;;19.90;53.92
46778;BME280;32536;47.128;8.746;2023-05-06T10:15:11;91708.16;;;19.99;53.92
46778;BME280;32536;47.128;8.746;2023-05-06T10:17:39;91706.19;;;20.00;53.78
46778;BME280;32536;47.128;8.746;2023-05-06T10:20:07;91708.25;;;20.05;53.84
46778;BME280;32536;47.128;8.746;2023-05-06T10:28:52;91708.69;;;20.13;53.94
46778;BME280;32536;47.128;8.746;2023-05-06T10:31:19;91703.69;;;20.11;53.88
46778;BME280;32536;47.128;8.746;2023-05-06T10:33:48;91699.19;;;20.08;54.04
46778;BME280;32536;47.128;8.746;2023-05-06T10:36:23;91698.41;;;20.08;54.02
46778;BME280;32536;47.128;8.746;2023-05-06T10:38:54;91690.56;;;20.10;53.92
46778;BME280;32536;47.128;8.746;2023-05-06T10:41:23;91689.50;;;20.07;53.93
46778;BME280;32536;47.128;8.746;2023-05-06T10:43:53;91692.41;;;20.04;54.04
46778;BME280;32536;47.128;8.746;2023-05-06T10:46:28;91693.91;;;20.05;53.89
46778;BME280;32536;47.128;8.746;2023-05-06T10:51:37;91683.84;;;19.96;53.45
46778;BME280;32536;47.128;8.746;2023-05-06T10:54:06;91690.22;;;19.93;53.41
46778;BME280;32536;47.128;8.746;2023-05-06T10:59:22;91686.63;;;19.87;53.31
46778;BME280;32536;47.128;8.746;2023-05-06T11:04:32;91689.28;;;19.96;52.92
46778;BME280;32536;47.128;8.746;2023-05-06T11:07:11;91689.13;;;19.99;51.89
46778;BME280;32536;47.128;8.746;2023-05-06T11:10:06;91693.44;;;20.06;51.41
46778;BME280;32536;47.128;8.746;2023-05-06T11:17:54;91684.22;;;20.28;52.42
46778;BME280;32536;47.128;8.746;2023-05-06T11:20:23;91682.16;;;20.23;52.39
46778;BME280;32536;47.128;8.746;2023-05-06T11:22:51;91682.91;;;20.23;52.49
46778;BME280;32536;47.128;8.746;2023-05-06T11:25:41;91680.47;;;20.25;51.61
46778;BME280;32536;47.128;8.746;2023-05-06T11:28:12;91679.09;;;20.30;51.54
46778;BME280;32536;47.128;8.746;2023-05-06T11:30:42;91676.94;;;20.34;52.31
46778;BME280;32536;47.128;8.746;2023-05-06T11:33:16;91674.22;;;20.34;51.29
46778;BME280;32536;47.128;8.746;2023-05-06T11:35:46;91680.97;;;20.39;52.35
46778;BME280;32536;47.128;8.746;2023-05-06T11:38:13;91677.78;;;20.40;52.27
46778;BME280;32536;47.128;8.746;2023-05-06T11:40:40;91677.78;;;20.40;52.38
46778;BME280;32536;47.128;8.746;2023-05-06T11:43:14;91681.63;;;20.34;51.59
46778;BME280;32536;47.128;8.746;2023-05-06T11:45:46;91675.44;;;20.33;52.01
46778;BME280;32536;47.128;8.746;2023-05-06T11:48:14;91677.22;;;20.36;52.38
46778;BME280;32536;47.128;8.746;2023-05-06T11:50:45;91680.56;;;20.31;51.66
46778;BME280;32536;47.128;8.746;2023-05-06T11:53:16;91675.91;;;20.31;52.12
46778;BME280;32536;47.128;8.746;2023-05-06T11:55:44;91681.44;;;20.37;52.17
46778;BME280;32536;47.128;8.746;2023-05-06T11:58:26;91674.59;;;20.42;51.95
46778;BME280;32536;47.128;8.746;2023-05-06T12:00:56;91671.44;;;20.43;51.89
46778;BME280;32536;47.128;8.746;2023-05-06T12:03:28;91669.56;;;20.50;52.18
46778;BME280;32536;47.128;8.746;2023-05-06T12:05:56;91662.25;;;20.56;51.95
46778;BME280;32536;47.128;8.746;2023-05-06T12:08:30;91664.03;;;20.59;51.66
46778;BME280;32536;47.128;8.746;2023-05-06T12:11:00;91661.78;;;20.57;51.89
46778;BME280;32536;47.128;8.746;2023-05-06T12:13:28;91660.16;;;20.51;51.57
46778;BME280;32536;47.128;8.746;2023-05-06T12:15:57;91657.91;;;20.49;51.80
46778;BME280;32536;47.128;8.746;2023-05-06T12:18:25;91654.72;;;20.51;51.74
46778;BME280;32536;47.128;8.746;2023-05-06T12:20:53;91658.22;;;20.51;51.82
46778;BME280;32536;47.128;8.746;2023-05-06T12:23:20;91657.06;;;20.58;51.59
46778;BME280;32536;47.128;8.746;2023-05-06T12:25:59;91653.72;;;20.63;51.22
46778;BME280;32536;47.128;8.746;2023-05-06T12:28:31;91647.75;;;20.74;51.63
46778;BME280;32536;47.128;8.746;2023-05-06T12:31:25;91653.09;;;20.83;51.27
46778;BME280;32536;47.128;8.746;2023-05-06T12:33:53;91650.28;;;20.92;51.66
46778;BME280;32536;47.128;8.746;2023-05-06T12:36:20;91647.09;;;20.94;51.50
46778;BME280;32536;47.128;8.746;2023-05-06T12:41:18;91641.56;;;21.03;51.43
46778;BME280;32536;47.128;8.746;2023-05-06T12:43:46;91646.88;;;21.13;51.62
46778;BME280;32536;47.128;8.746;2023-05-06T12:46:14;91647.81;;;21.24;51.41
46778;BME280;32536;47.128;8.746;2023-05-06T12:49:01;91638.78;;;21.33;50.03
46778;BME280;32536;47.128;8.746;2023-05-06T12:51:28;91645.63;;;21.43;51.05
46778;BME280;32536;47.128;8.746;2023-05-06T12:53:55;91644.47;;;21.50;51.05
46778;BME280;32536;47.128;8.746;2023-05-06T12:56:22;91651.53;;;21.57;50.82
46778;BME280;32536;47.128;8.746;2023-05-06T12:58:59;91650.00;;;21.56;49.69
46778;BME280;32536;47.128;8.746;2023-05-06T13:01:27;91646.63;;;21.61;51.01
46778;BME280;32536;47.128;8.746;2023-05-06T13:03:54;91639.97;;;21.62;50.64
46778;BME280;32536;47.128;8.746;2023-05-06T13:06:24;91632.81;;;21.65;50.50
46778;BME280;32536;47.128;8.746;2023-05-06T13:08:51;91641.47;;;21.63;50.10
46778;BME280;32536;47.128;8.746;2023-05-06T13:11:17;91640.25;;;21.64;50.26
46778;BME280;32536;47.128;8.746;2023-05-06T13:13:46;91643.50;;;21.68;50.29
46778;BME280;32536;47.128;8.746;2023-05-06T13:16:12;91637.28;;;21.68;50.44
46778;BME280;32536;47.128;8.746;2023-05-06T13:18:39;91639.56;;;21.69;50.49
46778;BME280;32536;47.128;8.746;2023-05-06T13:21:06;91631.63;;;21.71;50.43
46778;BME280;32536;47.128;8.746;2023-05-06T13:23:33;91626.47;;;21.73;50.31
46778;BME280;32536;47.128;8.746;2023-05-06T13:26:01;91631.72;;;21.77;50.39
46778;BME280;32536;47.128;8.746;2023-05-06T13:28:31;91627.03;;;21.78;50.28